createdAt,value
2017-08-26T00:00:49.547Z,0
2017-08-26T00:02:02.181Z,0
2017-08-26T00:03:14.763Z,0
2017-08-26T00:04:27.021Z,0
2017-08-26T00:05:39.735Z,0
2017-08-26T00:06:51.677Z,0
2017-08-26T00:08:04.248Z,0
2017-08-26T00:09:16.497Z,0
2017-08-26T00:10:28.481Z,0
2017-08-26T00:11:41.085Z,0
2017-08-26T00:12:53.631Z,0
2017-08-26T00:14:05.959Z,0
2017-08-26T00:15:18.559Z,0
2017-08-26T00:16:31.222Z,0
2017-08-26T00:17:43.829Z,0
2017-08-26T00:18:56.139Z,0
2017-08-26T00:20:08.355Z,0
2017-08-26T00:21:20.605Z,0
2017-08-26T00:22:33.213Z,0
2017-08-26T00:23:45.490Z,0
2017-08-26T00:24:58.123Z,0
2017-08-26T00:26:10.068Z,0
2017-08-26T00:27:22.695Z,0
2017-08-26T00:28:34.686Z,0
2017-08-26T00:29:47.319Z,0
2017-08-26T00:30:59.841Z,0
2017-08-26T00:32:12.410Z,0
2017-08-26T00:33:24.946Z,0
2017-08-26T00:34:37.577Z,0
2017-08-26T00:35:49.501Z,0
2017-08-26T00:37:02.051Z,0
2017-08-26T00:38:14.650Z,0
2017-08-26T00:39:26.940Z,0
2017-08-26T00:40:39.581Z,0
2017-08-26T00:41:52.201Z,0
2017-08-26T00:43:04.477Z,0
2017-08-26T00:44:16.999Z,0
2017-08-26T00:45:29.621Z,0
2017-08-26T00:46:42.233Z,0
2017-08-26T00:47:54.809Z,0
2017-08-26T00:49:07.375Z,0
2017-08-26T00:50:19.627Z,0
2017-08-26T00:51:31.252Z,0
2017-08-26T00:52:43.511Z,0
2017-08-26T00:53:56.089Z,0
2017-08-26T00:55:08.401Z,0
2017-08-26T00:56:20.974Z,0
2017-08-26T00:57:33.218Z,0
2017-08-26T00:58:45.825Z,0
2017-08-26T00:59:58.665Z,0
2017-08-26T01:01:10.966Z,0
2017-08-26T01:02:23.587Z,0
2017-08-26T01:03:35.575Z,0
2017-08-26T01:04:47.553Z,0
2017-08-26T01:05:59.798Z,0
2017-08-26T01:07:12.359Z,0
2017-08-26T01:08:24.891Z,0
2017-08-26T01:09:37.516Z,0
2017-08-26T01:10:49.470Z,0
2017-08-26T01:12:02.097Z,0
2017-08-26T01:13:14.006Z,0
2017-08-26T01:14:26.294Z,0
2017-08-26T01:15:38.805Z,0
2017-08-26T01:16:51.482Z,0
2017-08-26T01:18:04.045Z,0
2017-08-26T01:19:16.576Z,0
2017-08-26T01:20:29.168Z,0
2017-08-26T01:21:42.006Z,0
2017-08-26T01:22:54.227Z,0
2017-08-26T01:24:06.826Z,0
2017-08-26T01:25:19.368Z,0
2017-08-26T01:26:31.975Z,0
2017-08-26T01:27:44.246Z,0
2017-08-26T01:28:56.836Z,0
2017-08-26T01:30:09.101Z,0
2017-08-26T01:31:21.383Z,0
2017-08-26T01:32:33.643Z,0
2017-08-26T01:33:46.288Z,0
2017-08-26T01:34:58.552Z,0
2017-08-26T01:36:11.147Z,0
2017-08-26T01:37:23.755Z,0
2017-08-26T01:38:36.339Z,0
2017-08-26T01:39:48.947Z,0
2017-08-26T01:41:01.621Z,0
2017-08-26T01:42:13.592Z,0
2017-08-26T01:43:25.878Z,0
2017-08-26T01:44:38.388Z,0
2017-08-26T01:45:50.723Z,0
2017-08-26T01:47:03.019Z,0
2017-08-26T01:48:15.696Z,0
2017-08-26T01:49:28.263Z,0
2017-08-26T01:50:40.877Z,0
2017-08-26T01:51:53.440Z,0
2017-08-26T01:53:06.016Z,0
2017-08-26T01:54:18.238Z,0
2017-08-26T01:55:30.534Z,0
2017-08-26T01:56:43.105Z,0
2017-08-26T01:57:55.387Z,0
2017-08-26T01:59:08.046Z,0
2017-08-26T02:00:20.702Z,0
2017-08-26T02:01:33.293Z,0
2017-08-26T02:02:45.868Z,0
2017-08-26T02:03:58.089Z,0
2017-08-26T02:05:10.650Z,0
2017-08-26T02:06:22.920Z,0
2017-08-26T02:07:35.198Z,0
2017-08-26T02:08:47.515Z,0
2017-08-26T02:09:59.757Z,0
2017-08-26T02:11:12.334Z,0
2017-08-26T02:12:24.955Z,0
2017-08-26T02:13:37.270Z,0
2017-08-26T02:14:49.226Z,0
2017-08-26T02:16:01.514Z,0
2017-08-26T02:17:14.088Z,0
2017-08-26T02:18:26.360Z,0
2017-08-26T02:19:38.635Z,0
2017-08-26T02:20:51.271Z,0
2017-08-26T02:22:03.539Z,0
2017-08-26T02:23:16.109Z,0
2017-08-26T02:24:28.079Z,0
2017-08-26T02:25:40.650Z,0
2017-08-26T02:26:53.251Z,0
2017-08-26T02:28:05.567Z,0
2017-08-26T02:29:17.857Z,0
2017-08-26T02:30:30.435Z,0
2017-08-26T02:31:42.772Z,0
2017-08-26T02:32:55.311Z,0
2017-08-26T02:34:07.352Z,0
2017-08-26T02:35:19.927Z,0
2017-08-26T02:36:32.192Z,0
2017-08-26T02:37:45.050Z,0
2017-08-26T02:38:57.658Z,0
2017-08-26T02:40:09.923Z,0
2017-08-26T02:41:22.205Z,0
2017-08-26T02:42:34.790Z,0
2017-08-26T02:43:47.368Z,0
2017-08-26T02:45:00.007Z,0
2017-08-26T02:46:11.608Z,0
2017-08-26T02:47:23.925Z,0
2017-08-26T02:48:36.222Z,0
2017-08-26T02:49:48.852Z,0
2017-08-26T02:51:01.426Z,0
2017-08-26T02:52:13.073Z,0
2017-08-26T02:53:25.351Z,0
2017-08-26T02:54:37.903Z,0
2017-08-26T02:55:50.528Z,0
2017-08-26T02:57:02.514Z,0
2017-08-26T02:58:15.083Z,0
2017-08-26T02:59:27.354Z,0
2017-08-26T03:00:39.930Z,0
2017-08-26T03:01:52.231Z,0
2017-08-26T03:03:04.783Z,0
2017-08-26T03:04:17.404Z,0
2017-08-26T03:05:29.693Z,0
2017-08-26T03:06:42.308Z,0
2017-08-26T03:07:54.580Z,0
2017-08-26T03:09:06.843Z,0
2017-08-26T03:10:19.495Z,0
2017-08-26T03:11:31.739Z,0
2017-08-26T03:12:44.082Z,0
2017-08-26T03:13:56.330Z,0
2017-08-26T03:15:08.905Z,0
2017-08-26T03:16:21.471Z,0
2017-08-26T03:17:33.774Z,0
2017-08-26T03:18:46.414Z,0
2017-08-26T03:19:58.686Z,0
2017-08-26T03:21:11.532Z,0
2017-08-26T03:22:23.801Z,0
2017-08-26T03:23:36.399Z,0
2017-08-26T03:24:48.662Z,0
2017-08-26T03:26:00.883Z,0
2017-08-26T03:27:13.453Z,0
2017-08-26T03:28:26.028Z,0
2017-08-26T03:29:38.360Z,0
2017-08-26T03:30:50.641Z,4
2017-08-26T03:32:02.615Z,4
2017-08-26T03:33:14.535Z,0
2017-08-26T03:34:27.162Z,4
2017-08-26T03:35:39.783Z,4
2017-08-26T03:36:52.095Z,4
2017-08-26T03:38:04.317Z,8
2017-08-26T03:39:16.567Z,8
2017-08-26T03:40:28.817Z,8
2017-08-26T03:41:41.380Z,8
2017-08-26T03:42:53.323Z,12
2017-08-26T03:44:05.892Z,12
2017-08-26T03:45:18.467Z,16
2017-08-26T03:46:31.020Z,20
2017-08-26T03:47:43.654Z,24
2017-08-26T03:48:55.649Z,32
2017-08-26T03:50:07.923Z,40
2017-08-26T03:51:20.441Z,48
2017-08-26T03:52:32.717Z,52
2017-08-26T03:53:45.108Z,64
2017-08-26T03:54:57.332Z,76
2017-08-26T03:56:09.602Z,88
2017-08-26T03:57:22.236Z,108
2017-08-26T03:58:34.801Z,128
2017-08-26T03:59:47.443Z,152
2017-08-26T04:00:59.406Z,168
2017-08-26T04:02:11.709Z,188
2017-08-26T04:03:23.666Z,204
2017-08-26T04:04:36.236Z,212
2017-08-26T04:05:48.496Z,224
2017-08-26T04:07:00.761Z,240
2017-08-26T04:08:13.036Z,260
2017-08-26T04:09:25.302Z,292
2017-08-26T04:10:37.873Z,328
2017-08-26T04:11:50.143Z,376
2017-08-26T04:13:02.374Z,428
2017-08-26T04:14:14.684Z,488
2017-08-26T04:15:26.955Z,552
2017-08-26T04:16:39.593Z,616
2017-08-26T04:17:52.232Z,676
2017-08-26T04:19:04.927Z,740
2017-08-26T04:20:17.588Z,812
2017-08-26T04:21:30.132Z,884
2017-08-26T04:22:42.710Z,956
2017-08-26T04:23:55.293Z,1028
2017-08-26T04:25:07.623Z,1088
2017-08-26T04:26:20.593Z,1152
2017-08-26T04:27:33.186Z,1228
2017-08-26T04:28:45.754Z,1308
2017-08-26T04:29:58.365Z,1360
2017-08-26T04:31:10.623Z,1380
2017-08-26T04:32:23.211Z,1400
2017-08-26T04:33:35.526Z,1456
2017-08-26T04:34:48.213Z,1516
2017-08-26T04:36:00.137Z,1568
2017-08-26T04:37:12.725Z,1624
2017-08-26T04:38:25.358Z,1724
2017-08-26T04:39:37.892Z,1848
2017-08-26T04:40:50.154Z,1964
2017-08-26T04:42:02.409Z,2064
2017-08-26T04:43:14.665Z,2112
2017-08-26T04:44:27.269Z,2196
2017-08-26T04:45:39.926Z,2292
2017-08-26T04:46:52.541Z,2344
2017-08-26T04:48:04.865Z,2456
2017-08-26T04:49:17.188Z,2584
2017-08-26T04:50:29.814Z,2664
2017-08-26T04:51:42.427Z,2724
2017-08-26T04:52:54.044Z,2732
2017-08-26T04:54:06.018Z,2768
2017-08-26T04:55:18.635Z,2828
2017-08-26T04:56:30.881Z,2940
2017-08-26T04:57:43.428Z,3096
2017-08-26T04:58:56.286Z,3276
2017-08-26T05:00:08.874Z,3412
2017-08-26T05:01:21.489Z,3532
2017-08-26T05:02:34.034Z,3588
2017-08-26T05:03:46.586Z,3540
2017-08-26T05:04:59.176Z,3508
2017-08-26T05:06:11.127Z,3548
2017-08-26T05:07:23.681Z,3560
2017-08-26T05:08:36.005Z,3692
2017-08-26T05:09:48.562Z,3836
2017-08-26T05:11:01.140Z,3932
2017-08-26T05:12:13.774Z,3924
2017-08-26T05:13:26.350Z,3932
2017-08-26T05:14:38.633Z,3972
2017-08-26T05:15:51.235Z,4112
2017-08-26T05:17:03.193Z,4264
2017-08-26T05:18:15.501Z,4368
2017-08-26T05:19:28.138Z,4396
2017-08-26T05:20:40.686Z,4360
2017-08-26T05:21:52.939Z,4440
2017-08-26T05:23:05.461Z,4620
2017-08-26T05:24:17.482Z,4928
2017-08-26T05:25:30.076Z,5196
2017-08-26T05:26:42.671Z,5268
2017-08-26T05:27:54.917Z,5256
2017-08-26T05:29:07.426Z,5248
2017-08-26T05:30:19.415Z,5296
2017-08-26T05:31:32.216Z,5492
2017-08-26T05:32:44.493Z,5916
2017-08-26T05:33:56.760Z,6436
2017-08-26T05:35:09.047Z,6692
2017-08-26T05:36:21.019Z,6612
2017-08-26T05:37:33.656Z,6372
2017-08-26T05:38:46.245Z,6120
2017-08-26T05:39:58.800Z,5944
2017-08-26T05:41:10.773Z,5872
2017-08-26T05:42:23.393Z,5896
2017-08-26T05:43:35.014Z,5960
2017-08-26T05:44:47.584Z,6032
2017-08-26T05:46:00.210Z,6256
2017-08-26T05:47:12.784Z,6720
2017-08-26T05:48:25.412Z,7316
2017-08-26T05:49:37.701Z,7740
2017-08-26T05:50:50.313Z,8176
2017-08-26T05:52:02.905Z,8548
2017-08-26T05:53:14.583Z,8748
2017-08-26T05:54:27.158Z,8820
2017-08-26T05:55:39.785Z,8924
2017-08-26T05:56:52.070Z,9148
2017-08-26T05:58:04.358Z,9392
2017-08-26T05:59:16.604Z,9660
2017-08-26T06:00:29.207Z,10052
2017-08-26T06:01:41.807Z,10620
2017-08-26T06:02:53.797Z,11232
2017-08-26T06:04:06.594Z,11896
2017-08-26T06:05:19.170Z,12584
2017-08-26T06:06:31.797Z,12932
2017-08-26T06:07:44.067Z,12624
2017-08-26T06:08:55.398Z,12220
2017-08-26T06:10:07.707Z,11996
2017-08-26T06:11:20.286Z,11728
2017-08-26T06:12:32.849Z,11628
2017-08-26T06:13:45.438Z,11804
2017-08-26T06:14:58.072Z,12168
2017-08-26T06:16:10.629Z,12236
2017-08-26T06:17:22.963Z,12064
2017-08-26T06:18:35.213Z,11952
2017-08-26T06:19:47.498Z,11804
2017-08-26T06:21:00.109Z,11620
2017-08-26T06:22:12.398Z,11896
2017-08-26T06:23:24.943Z,11836
2017-08-26T06:24:37.514Z,11932
2017-08-26T06:25:50.336Z,12216
2017-08-26T06:27:02.868Z,12200
2017-08-26T06:28:15.502Z,12348
2017-08-26T06:29:28.120Z,12512
2017-08-26T06:30:40.697Z,12316
2017-08-26T06:31:53.338Z,12820
2017-08-26T06:33:05.589Z,12588
2017-08-26T06:34:18.239Z,14224
2017-08-26T06:35:30.922Z,17472
2017-08-26T06:36:43.175Z,18560
2017-08-26T06:37:55.146Z,21120
2017-08-26T06:39:07.772Z,21568
2017-08-26T06:40:20.418Z,20832
2017-08-26T06:41:33.063Z,19776
2017-08-26T06:42:45.334Z,19392
2017-08-26T06:43:57.649Z,20800
2017-08-26T06:45:09.914Z,21760
2017-08-26T06:46:22.509Z,24128
2017-08-26T06:47:34.741Z,23168
2017-08-26T06:48:47.036Z,19584
2017-08-26T06:49:59.327Z,15916
2017-08-26T06:51:11.885Z,13044
2017-08-26T06:52:24.464Z,13488
2017-08-26T06:53:37.062Z,14976
2017-08-26T06:54:49.715Z,16128
2017-08-26T06:56:02.255Z,16740
2017-08-26T06:57:14.846Z,17180
2017-08-26T06:58:27.415Z,15872
2017-08-26T06:59:39.967Z,18368
2017-08-26T07:00:52.532Z,17256
2017-08-26T07:02:04.521Z,17632
2017-08-26T07:03:16.511Z,16608
2017-08-26T07:04:28.796Z,16260
2017-08-26T07:05:41.390Z,14348
2017-08-26T07:06:53.992Z,14308
2017-08-26T07:08:06.631Z,14532
2017-08-26T07:09:18.927Z,13756
2017-08-26T07:10:31.558Z,12628
2017-08-26T07:11:43.554Z,11900
2017-08-26T07:12:56.166Z,11704
2017-08-26T07:14:08.706Z,11896
2017-08-26T07:15:21.611Z,12768
2017-08-26T07:16:33.916Z,13924
2017-08-26T07:17:46.572Z,14820
2017-08-26T07:18:58.892Z,15896
2017-08-26T07:20:10.916Z,16972
2017-08-26T07:21:23.161Z,18368
2017-08-26T07:22:35.479Z,19232
2017-08-26T07:23:47.428Z,19296
2017-08-26T07:24:59.727Z,20032
2017-08-26T07:26:12.397Z,21344
2017-08-26T07:27:24.725Z,23488
2017-08-26T07:28:37.348Z,24096
2017-08-26T07:29:49.914Z,23456
2017-08-26T07:31:02.505Z,22560
2017-08-26T07:32:15.099Z,22304
2017-08-26T07:33:27.745Z,21504
2017-08-26T07:34:40.274Z,21120
2017-08-26T07:35:52.555Z,21760
2017-08-26T07:37:04.579Z,22400
2017-08-26T07:38:16.823Z,22848
2017-08-26T07:39:29.471Z,21504
2017-08-26T07:40:42.090Z,22592
2017-08-26T07:41:54.990Z,23168
2017-08-26T07:43:07.279Z,23456
2017-08-26T07:44:19.911Z,23136
2017-08-26T07:45:32.552Z,23232
2017-08-26T07:46:44.791Z,23680
2017-08-26T07:47:57.036Z,24000
2017-08-26T07:49:09.057Z,24448
2017-08-26T07:50:21.282Z,23104
2017-08-26T07:51:33.908Z,21568
2017-08-26T07:52:46.499Z,20384
2017-08-26T07:53:59.115Z,17440
2017-08-26T07:55:11.697Z,15760
2017-08-26T07:56:23.961Z,15464
2017-08-26T07:57:36.559Z,15228
2017-08-26T07:58:49.138Z,14736
2017-08-26T08:00:01.775Z,14404
2017-08-26T08:01:13.778Z,14040
2017-08-26T08:02:26.341Z,13816
2017-08-26T08:03:38.966Z,13548
2017-08-26T08:04:50.952Z,13996
2017-08-26T08:06:03.233Z,14608
2017-08-26T08:07:15.520Z,14808
2017-08-26T08:08:27.492Z,14724
2017-08-26T08:09:39.734Z,14292
2017-08-26T08:10:52.336Z,13740
2017-08-26T08:12:04.976Z,13232
2017-08-26T08:13:16.585Z,12540
2017-08-26T08:14:29.096Z,11848
2017-08-26T08:15:41.418Z,11304
2017-08-26T08:16:53.658Z,10896
2017-08-26T08:18:06.230Z,10424
2017-08-26T08:19:18.825Z,10016
2017-08-26T08:20:31.070Z,9556
2017-08-26T08:21:43.051Z,9364
2017-08-26T08:22:55.653Z,9464
2017-08-26T08:24:08.257Z,9636
2017-08-26T08:25:20.852Z,9492
2017-08-26T08:26:33.162Z,9236
2017-08-26T08:27:45.386Z,9244
2017-08-26T08:28:57.631Z,9520
2017-08-26T08:30:09.571Z,9664
2017-08-26T08:31:21.863Z,10096
2017-08-26T08:32:34.467Z,11156
2017-08-26T08:33:46.751Z,13484
2017-08-26T08:34:59.308Z,16088
2017-08-26T08:36:11.958Z,18592
2017-08-26T08:37:24.266Z,19200
2017-08-26T08:38:36.816Z,19616
2017-08-26T08:39:48.486Z,20672
2017-08-26T08:41:01.077Z,20992
2017-08-26T08:42:13.708Z,19136
2017-08-26T08:43:26.261Z,15964
2017-08-26T08:44:38.868Z,15352
2017-08-26T08:45:50.530Z,16020
2017-08-26T08:47:02.860Z,16808
2017-08-26T08:48:15.460Z,17920
2017-08-26T08:49:27.747Z,18528
2017-08-26T08:50:40.017Z,19200
2017-08-26T08:51:52.257Z,19072
2017-08-26T08:53:04.530Z,17092
2017-08-26T08:54:17.108Z,15404
2017-08-26T08:55:29.043Z,15716
2017-08-26T08:56:41.617Z,16256
2017-08-26T08:57:53.535Z,16424
2017-08-26T08:59:06.130Z,16792
2017-08-26T09:00:18.432Z,18528
2017-08-26T09:01:31.139Z,20160
2017-08-26T09:02:43.473Z,20224
2017-08-26T09:03:56.116Z,20096
2017-08-26T09:05:08.694Z,18304
2017-08-26T09:06:20.965Z,17088
2017-08-26T09:07:33.600Z,18624
2017-08-26T09:08:46.176Z,20480
2017-08-26T09:09:58.767Z,22304
2017-08-26T09:11:11.367Z,24128
2017-08-26T09:12:23.686Z,25728
2017-08-26T09:13:36.328Z,27136
2017-08-26T09:14:48.974Z,27808
2017-08-26T09:16:01.568Z,27968
2017-08-26T09:17:13.622Z,28640
2017-08-26T09:18:26.236Z,30272
2017-08-26T09:19:39.081Z,32000
2017-08-26T09:20:51.677Z,30880
2017-08-26T09:22:04.308Z,25056
2017-08-26T09:23:16.946Z,23424
2017-08-26T09:24:29.238Z,23968
2017-08-26T09:25:41.510Z,26272
2017-08-26T09:26:54.059Z,28064
2017-08-26T09:28:06.375Z,27360
2017-08-26T09:29:18.705Z,26560
2017-08-26T09:30:31.296Z,26592
2017-08-26T09:31:43.269Z,26144
2017-08-26T09:32:55.886Z,24992
2017-08-26T09:34:07.508Z,22944
2017-08-26T09:35:20.091Z,20992
2017-08-26T09:36:32.381Z,20224
2017-08-26T09:37:44.996Z,20352
2017-08-26T09:38:57.262Z,20192
2017-08-26T09:40:09.184Z,19360
2017-08-26T09:41:21.464Z,18432
2017-08-26T09:42:34.050Z,18784
2017-08-26T09:43:46.625Z,20224
2017-08-26T09:44:59.270Z,21280
2017-08-26T09:46:11.860Z,21248
2017-08-26T09:47:24.142Z,20768
2017-08-26T09:48:36.833Z,20672
2017-08-26T09:49:49.446Z,20672
2017-08-26T09:51:01.386Z,20768
2017-08-26T09:52:13.999Z,21376
2017-08-26T09:53:26.585Z,21984
2017-08-26T09:54:39.164Z,22016
2017-08-26T09:55:51.783Z,21696
2017-08-26T09:57:04.382Z,21632
2017-08-26T09:58:16.640Z,21984
2017-08-26T09:59:29.237Z,22464
2017-08-26T10:00:41.825Z,21696
2017-08-26T10:01:53.764Z,20352
2017-08-26T10:03:06.411Z,19264
2017-08-26T10:04:19.023Z,18720
2017-08-26T10:05:31.606Z,19712
2017-08-26T10:06:43.904Z,21056
2017-08-26T10:07:56.431Z,19904
2017-08-26T10:09:08.653Z,18272
2017-08-26T10:10:21.252Z,17504
2017-08-26T10:11:33.886Z,17536
2017-08-26T10:12:46.164Z,18144
2017-08-26T10:13:58.702Z,19008
2017-08-26T10:15:11.313Z,19904
2017-08-26T10:16:23.878Z,21152
2017-08-26T10:17:36.485Z,21696
2017-08-26T10:18:49.103Z,21408
2017-08-26T10:20:01.424Z,22432
2017-08-26T10:21:14.034Z,25664
2017-08-26T10:22:26.072Z,28256
2017-08-26T10:23:38.659Z,25984
2017-08-26T10:24:50.637Z,25472
2017-08-26T10:26:02.917Z,25728
2017-08-26T10:27:14.536Z,26464
2017-08-26T10:28:27.113Z,27200
2017-08-26T10:29:39.051Z,27456
2017-08-26T10:30:51.649Z,27584
2017-08-26T10:32:03.910Z,28320
2017-08-26T10:33:16.521Z,27648
2017-08-26T10:34:29.110Z,25632
2017-08-26T10:35:41.407Z,23520
2017-08-26T10:36:53.653Z,22432
2017-08-26T10:38:05.898Z,21664
2017-08-26T10:39:18.127Z,21120
2017-08-26T10:40:30.395Z,21024
2017-08-26T10:41:43.028Z,32480
2017-08-26T10:42:55.324Z,26208
2017-08-26T10:44:07.626Z,29248
2017-08-26T10:45:19.647Z,51136
2017-08-26T10:46:31.924Z,56864
2017-08-26T10:47:44.226Z,51040
2017-08-26T10:48:56.514Z,51936
2017-08-26T10:50:08.771Z,47680
2017-08-26T10:51:21.049Z,38848
2017-08-26T10:52:33.596Z,49120
2017-08-26T10:53:46.192Z,42240
2017-08-26T10:54:58.438Z,45696
2017-08-26T10:56:11.032Z,49312
2017-08-26T10:57:23.585Z,37280
2017-08-26T10:58:36.235Z,32704
2017-08-26T10:59:47.968Z,32672
2017-08-26T11:01:00.681Z,34272
2017-08-26T11:02:13.304Z,35264
2017-08-26T11:03:25.906Z,38720
2017-08-26T11:04:38.493Z,44832
2017-08-26T11:05:51.098Z,39456
2017-08-26T11:07:03.344Z,38560
2017-08-26T11:08:15.888Z,39104
2017-08-26T11:09:28.111Z,49312
2017-08-26T11:10:40.741Z,56224
2017-08-26T11:11:53.407Z,46624
2017-08-26T11:13:05.624Z,33184
2017-08-26T11:14:17.844Z,37504
2017-08-26T11:15:30.162Z,41280
2017-08-26T11:16:42.794Z,37888
2017-08-26T11:17:55.111Z,40928
2017-08-26T11:19:07.403Z,47200
2017-08-26T11:20:19.699Z,45888
2017-08-26T11:21:32.361Z,39456
2017-08-26T11:22:44.998Z,37216
2017-08-26T11:23:56.962Z,35328
2017-08-26T11:25:09.229Z,36960
2017-08-26T11:26:21.474Z,41568
2017-08-26T11:27:33.780Z,38880
2017-08-26T11:28:46.071Z,34752
2017-08-26T11:29:57.717Z,31232
2017-08-26T11:31:10.281Z,28416
2017-08-26T11:32:22.856Z,27168
2017-08-26T11:33:35.101Z,27040
2017-08-26T11:34:47.722Z,26400
2017-08-26T11:36:00.326Z,25824
2017-08-26T11:37:12.001Z,26496
2017-08-26T11:38:24.355Z,28736
2017-08-26T11:39:36.976Z,29664
2017-08-26T11:40:49.175Z,31904
2017-08-26T11:42:01.135Z,30016
2017-08-26T11:43:13.415Z,30432
2017-08-26T11:44:25.764Z,30464
2017-08-26T11:45:38.365Z,27776
2017-08-26T11:46:50.333Z,25920
2017-08-26T11:48:02.295Z,24608
2017-08-26T11:49:14.903Z,27872
2017-08-26T11:50:27.137Z,45472
2017-08-26T11:51:39.733Z,41728
2017-08-26T11:52:52.017Z,47552
2017-08-26T11:54:04.274Z,51200
2017-08-26T11:55:16.545Z,48608
2017-08-26T11:56:28.557Z,46656
2017-08-26T11:57:41.117Z,49536
2017-08-26T11:58:53.405Z,50080
2017-08-26T12:00:05.676Z,50528
2017-08-26T12:01:17.978Z,45536
2017-08-26T12:02:29.869Z,33728
2017-08-26T12:03:42.417Z,23744
2017-08-26T12:04:54.990Z,21408
2017-08-26T12:06:07.605Z,20896
2017-08-26T12:07:19.907Z,21664
2017-08-26T12:08:32.503Z,21568
2017-08-26T12:09:45.124Z,22240
2017-08-26T12:10:57.812Z,22784
2017-08-26T12:12:10.134Z,23392
2017-08-26T12:13:22.434Z,22112
2017-08-26T12:14:35.079Z,21856
2017-08-26T12:15:47.319Z,23520
2017-08-26T12:16:59.940Z,22336
2017-08-26T12:18:12.192Z,20512
2017-08-26T12:19:24.806Z,21088
2017-08-26T12:20:37.052Z,20320
2017-08-26T12:21:49.341Z,21376
2017-08-26T12:23:01.342Z,23712
2017-08-26T12:24:13.626Z,32672
2017-08-26T12:25:25.910Z,28320
2017-08-26T12:26:38.509Z,26304
2017-08-26T12:27:50.466Z,24768
2017-08-26T12:29:02.423Z,23328
2017-08-26T12:30:14.373Z,25312
2017-08-26T12:31:26.332Z,28352
2017-08-26T12:32:38.960Z,27136
2017-08-26T12:33:51.255Z,46528
2017-08-26T12:35:03.500Z,30272
2017-08-26T12:36:16.114Z,29248
2017-08-26T12:37:28.667Z,29504
2017-08-26T12:38:41.015Z,29568
2017-08-26T12:39:52.662Z,28160
2017-08-26T12:41:05.296Z,25248
2017-08-26T12:42:17.901Z,22880
2017-08-26T12:43:30.487Z,21728
2017-08-26T12:44:42.796Z,21664
2017-08-26T12:45:55.115Z,21792
2017-08-26T12:47:07.439Z,21920
2017-08-26T12:48:20.075Z,22656
2017-08-26T12:49:32.398Z,23488
2017-08-26T12:50:44.995Z,23808
2017-08-26T12:51:57.683Z,23424
2017-08-26T12:53:09.689Z,22944
2017-08-26T12:54:22.256Z,22624
2017-08-26T12:55:34.558Z,23040
2017-08-26T12:56:47.147Z,23456
2017-08-26T12:57:59.726Z,23200
2017-08-26T12:59:12.306Z,22720
2017-08-26T13:00:24.938Z,24928
2017-08-26T13:01:37.560Z,25728
2017-08-26T13:02:50.175Z,23744
2017-08-26T13:04:02.479Z,22784
2017-08-26T13:05:14.752Z,22336
2017-08-26T13:06:26.718Z,23264
2017-08-26T13:07:38.987Z,25600
2017-08-26T13:08:51.268Z,25792
2017-08-26T13:10:03.580Z,25440
2017-08-26T13:11:15.856Z,25472
2017-08-26T13:12:28.178Z,27648
2017-08-26T13:13:40.466Z,29728
2017-08-26T13:14:52.776Z,28256
2017-08-26T13:16:05.327Z,26880
2017-08-26T13:17:17.584Z,26208
2017-08-26T13:18:29.925Z,25664
2017-08-26T13:19:42.557Z,26272
2017-08-26T13:20:55.135Z,26816
2017-08-26T13:22:07.706Z,25728
2017-08-26T13:23:20.032Z,24192
2017-08-26T13:24:32.029Z,24000
2017-08-26T13:25:44.674Z,23968
2017-08-26T13:26:57.270Z,22560
2017-08-26T13:28:09.890Z,20544
2017-08-26T13:29:22.191Z,18400
2017-08-26T13:30:34.474Z,16900
2017-08-26T13:31:47.113Z,16992
2017-08-26T13:32:59.723Z,18848
2017-08-26T13:34:12.343Z,20320
2017-08-26T13:35:24.665Z,21344
2017-08-26T13:36:37.028Z,23136
2017-08-26T13:37:49.600Z,25216
2017-08-26T13:39:01.906Z,27200
2017-08-26T13:40:13.856Z,27392
2017-08-26T13:41:26.453Z,27616
2017-08-26T13:42:39.099Z,27552
2017-08-26T13:43:51.369Z,24192
2017-08-26T13:45:03.379Z,21376
2017-08-26T13:46:15.730Z,20160
2017-08-26T13:47:28.364Z,20384
2017-08-26T13:48:40.891Z,21248
2017-08-26T13:49:53.431Z,21696
2017-08-26T13:51:06.057Z,22400
2017-08-26T13:52:18.740Z,22624
2017-08-26T13:53:30.986Z,24864
2017-08-26T13:54:43.618Z,26496
2017-08-26T13:55:55.890Z,24704
2017-08-26T13:57:08.509Z,23360
2017-08-26T13:58:21.130Z,21888
2017-08-26T13:59:33.752Z,20736
2017-08-26T14:00:46.052Z,19520
2017-08-26T14:01:58.662Z,18656
2017-08-26T14:03:11.275Z,20512
2017-08-26T14:04:23.890Z,18752
2017-08-26T14:05:36.217Z,16716
2017-08-26T14:06:48.481Z,14432
2017-08-26T14:08:01.089Z,13744
2017-08-26T14:09:13.391Z,14148
2017-08-26T14:10:25.731Z,14856
2017-08-26T14:11:38.333Z,15340
2017-08-26T14:12:50.977Z,15852
2017-08-26T14:14:03.572Z,16560
2017-08-26T14:15:16.125Z,17824
2017-08-26T14:16:28.724Z,19936
2017-08-26T14:17:41.354Z,21056
2017-08-26T14:18:53.630Z,20160
2017-08-26T14:20:05.602Z,19072
2017-08-26T14:21:17.868Z,19168
2017-08-26T14:22:30.195Z,19296
2017-08-26T14:23:43.034Z,19328
2017-08-26T14:24:55.262Z,20160
2017-08-26T14:26:07.554Z,22208
2017-08-26T14:27:20.158Z,23488
2017-08-26T14:28:32.841Z,23392
2017-08-26T14:29:45.129Z,23072
2017-08-26T14:30:57.718Z,21856
2017-08-26T14:32:09.978Z,21344
2017-08-26T14:33:22.237Z,22048
2017-08-26T14:34:34.850Z,21536
2017-08-26T14:35:47.457Z,20480
2017-08-26T14:37:00.085Z,18752
2017-08-26T14:38:12.354Z,16516
2017-08-26T14:39:24.613Z,15668
2017-08-26T14:40:36.955Z,15372
2017-08-26T14:41:49.229Z,14932
2017-08-26T14:43:01.813Z,14288
2017-08-26T14:44:14.120Z,13756
2017-08-26T14:45:26.716Z,14136
2017-08-26T14:46:38.699Z,15336
2017-08-26T14:47:51.332Z,15824
2017-08-26T14:49:03.991Z,14664
2017-08-26T14:50:16.293Z,13316
2017-08-26T14:51:28.550Z,12568
2017-08-26T14:52:41.179Z,12724
2017-08-26T14:53:53.727Z,13328
2017-08-26T14:55:05.345Z,13776
2017-08-26T14:56:17.009Z,13736
2017-08-26T14:57:29.592Z,13296
2017-08-26T14:58:41.850Z,12592
2017-08-26T14:59:54.435Z,11960
2017-08-26T15:01:06.754Z,11664
2017-08-26T15:02:18.730Z,11184
2017-08-26T15:03:31.017Z,10776
2017-08-26T15:04:43.286Z,10864
2017-08-26T15:05:55.925Z,11264
2017-08-26T15:07:08.503Z,11936
2017-08-26T15:08:20.759Z,12308
2017-08-26T15:09:33.111Z,12044
2017-08-26T15:10:45.675Z,11416
2017-08-26T15:11:58.285Z,10848
2017-08-26T15:13:10.306Z,10700
2017-08-26T15:14:22.636Z,10836
2017-08-26T15:15:34.921Z,10764
2017-08-26T15:16:47.193Z,10144
2017-08-26T15:17:59.412Z,9404
2017-08-26T15:19:11.727Z,9484
2017-08-26T15:20:24.310Z,10160
2017-08-26T15:21:36.903Z,10964
2017-08-26T15:22:49.154Z,10928
2017-08-26T15:24:01.798Z,9852
2017-08-26T15:25:14.073Z,8380
2017-08-26T15:26:26.413Z,7372
2017-08-26T15:27:38.977Z,7076
2017-08-26T15:28:51.259Z,6944
2017-08-26T15:30:03.868Z,6704
2017-08-26T15:31:16.164Z,6836
2017-08-26T15:32:28.735Z,7504
2017-08-26T15:33:40.998Z,8584
2017-08-26T15:34:53.256Z,9352
2017-08-26T15:36:05.554Z,9580
2017-08-26T15:37:17.511Z,8808
2017-08-26T15:38:29.781Z,7192
2017-08-26T15:39:42.345Z,5784
2017-08-26T15:40:54.666Z,4840
2017-08-26T15:42:06.673Z,4184
2017-08-26T15:43:18.973Z,3636
2017-08-26T15:44:30.903Z,3356
2017-08-26T15:45:43.230Z,3340
2017-08-26T15:46:55.859Z,3556
2017-08-26T15:48:07.810Z,3564
2017-08-26T15:49:20.085Z,3400
2017-08-26T15:50:32.356Z,3264
2017-08-26T15:51:44.670Z,3372
2017-08-26T15:52:57.223Z,3640
2017-08-26T15:54:09.507Z,3784
2017-08-26T15:55:21.486Z,3764
2017-08-26T15:56:33.465Z,3584
2017-08-26T15:57:45.999Z,3088
2017-08-26T15:58:58.239Z,2664
2017-08-26T16:00:09.914Z,2424
2017-08-26T16:01:22.809Z,2372
2017-08-26T16:02:35.388Z,2728
2017-08-26T16:03:47.367Z,3772
2017-08-26T16:04:59.654Z,5364
2017-08-26T16:06:11.997Z,6820
2017-08-26T16:07:24.372Z,7644
2017-08-26T16:08:36.736Z,8048
2017-08-26T16:09:48.357Z,8016